aviador You're here:

YCBB Decoded Metar

in
Report Time2017-11-25 03:00:00
UTC Time2017-11-25 03:36:40
Flight Rules unknown UNKNOWN
Wind120° at 13 kt
W.Decomp.*RWY 11: 12.8 kt HW 2.3 kt RCW
RWY 19: 4.4 kt HW 12.2 kt LCW
W.Rank120° ranks 34
Current wind is above 120° avg. (6.4)
VisibilityN/A
Phenomena:N/A
Clouds:N/A
Expected CloudBase > 8,000 ft AGL from Temp-Dew spread
CeilingNone
Temp28°C
Dew Point08°C (28% RH)
Heat Index27.0°C
AAT22.8°C
QNH1015 hPa
Raw Report
METAR YCBB 250300Z AUTO 12013KT //// // ////// 28/08 Q1015=

Extra information for YCBB:More info

Social comments